Time;durP1;ratioP1;P1;durP2;ratioP2;P2;SDS_P1;SDS_P2;PMS_P1;PMS_P2;Temp;Humidity;BMP_temperature;BMP_pressure;BME280_temperature;BME280_humidity;BME280_pressure;Samples;Min_cycle;Max_cycle;Signal;HPM_P1;HPM_P2
2022/05/02 00:00:07;;;;;;;4.40;3.40;;;;;;;8.68;61.38;101602.66;1731789;81;28618;-59
2022/05/02 00:02:37;;;;;;;7.90;3.15;;;;;;;8.61;61.41;101600.37;1731810;81;25760;-59
2022/05/02 00:05:06;;;;;;;12.60;3.15;;;;;;;8.57;62.03;101592.63;1731440;81;25796;-59
2022/05/02 00:07:33;;;;;;;9.03;3.77;;;;;;;8.53;61.73;101594.66;1731033;81;26014;-59
2022/05/02 00:10:00;;;;;;;10.93;4.97;;;;;;;8.48;62.11;101594.12;1731617;82;25769;-59
2022/05/02 00:12:29;;;;;;;7.85;3.60;;;;;;;8.49;62.10;101589.14;1731619;82;50523;-59
2022/05/02 00:14:56;;;;;;;5.85;3.45;;;;;;;8.51;62.20;101587.22;1731326;81;25741;-59
2022/05/02 00:17:56;;;;;;;9.50;3.72;;;;;;;8.56;62.48;101586.91;1730247;81;25729;-58
2022/05/02 00:19:51;;;;;;;11.38;3.55;;;;;;;8.60;62.39;101591.09;1727060;82;25813;-58
2022/05/02 00:22:18;;;;;;;5.78;3.27;;;;;;;8.62;62.46;101587.83;1730394;82;25796;-59
2022/05/02 00:24:45;;;;;;;8.63;3.22;;;;;;;8.65;62.52;101584.92;1730337;82;27470;-59
2022/05/02 00:27:12;;;;;;;5.55;3.02;;;;;;;8.67;62.57;101578.98;1731761;81;25767;-59
2022/05/02 00:29:38;;;;;;;12.18;3.45;;;;;;;8.68;62.49;101584.72;1731820;81;25679;-59
2022/05/02 00:32:07;;;;;;;9.90;3.35;;;;;;;8.68;62.53;101581.20;1731902;81;25906;-60
2022/05/02 00:34:34;;;;;;;8.23;3.12;;;;;;;8.68;62.53;101583.39;1731827;81;25823;-59
2022/05/02 00:37:01;;;;;;;5.62;2.92;;;;;;;8.67;62.49;101578.13;1735222;81;27395;-59
2022/05/02 00:39:27;;;;;;;9.40;3.47;;;;;;;8.67;62.57;101575.45;1767365;81;25822;-59
2022/05/02 00:41:54;;;;;;;5.42;3.10;;;;;;;8.65;62.74;101570.67;1767447;81;25723;-59
2022/05/02 00:44:21;;;;;;;8.20;3.42;;;;;;;8.61;62.62;101574.04;1767347;80;25774;-60
2022/05/02 00:46:48;;;;;;;9.05;3.90;;;;;;;8.59;62.47;101579.98;1731128;81;26340;-59
2022/05/02 00:49:16;;;;;;;9.48;3.17;;;;;;;8.57;62.34;101577.41;1731186;82;27489;-59
2022/05/02 00:51:43;;;;;;;5.50;3.67;;;;;;;8.54;62.25;101572.25;1735324;82;25457;-59
2022/05/02 00:54:10;;;;;;;8.78;3.47;;;;;;;8.50;62.12;101572.09;1735470;82;25732;-59
2022/05/02 00:56:37;;;;;;;11.63;3.45;;;;;;;8.44;61.96;101577.34;1739171;82;25843;-58
2022/05/02 00:59:05;;;;;;;8.55;3.37;;;;;;;8.37;61.93;101569.34;1738966;81;25708;-58
2022/05/02 01:01:32;;;;;;;5.35;3.62;;;;;;;8.33;62.10;101569.64;1740076;82;27455;-58
2022/05/02 01:03:59;;;;;;;16.05;4.03;;;;;;;8.28;62.11;101565.93;1739734;82;26215;-58
2022/05/02 01:09:11;;;;;;;9.15;4.00;;;;;;;8.12;62.55;101560.71;1730641;82;25776;-58
2022/05/02 01:11:38;;;;;;;16.10;4.15;;;;;;;8.06;62.59;101558.45;1730281;82;27283;-58
2022/05/02 01:14:08;;;;;;;7.92;3.67;;;;;;;7.99;62.79;101564.67;1731108;81;27595;-59
2022/05/02 01:16:36;;;;;;;4.87;3.95;;;;;;;7.94;62.79;101566.31;1738221;81;26166;-59
2022/05/02 01:19:03;;;;;;;5.28;3.25;;;;;;;7.89;63.04;101568.91;1740031;82;25805;-59
2022/05/02 01:21:31;;;;;;;8.50;3.70;;;;;;;7.82;63.05;101560.40;1739828;82;25833;-59
2022/05/02 01:24:03;;;;;;;6.25;3.87;;;;;;;7.73;62.88;101567.22;1740158;82;25797;-59
2022/05/02 01:26:30;;;;;;;19.07;4.33;;;;;;;7.66;63.24;101560.05;1732515;82;27527;-59
2022/05/02 01:29:00;;;;;;;14.05;4.05;;;;;;;7.63;63.41;101561.58;1730591;82;25928;-59
2022/05/02 01:31:28;;;;;;;7.42;3.80;;;;;;;7.60;63.77;101563.13;1730592;82;25839;-59
2022/05/02 01:33:55;;;;;;;10.85;3.75;;;;;;;7.57;63.85;101568.67;1733183;81;25892;-59
2022/05/02 01:36:23;;;;;;;5.87;3.70;;;;;;;7.55;64.13;101563.88;1737758;81;25709;-59
2022/05/02 01:38:51;;;;;;;10.88;4.00;;;;;;;7.55;64.65;101565.22;1740044;82;27564;-59
2022/05/02 01:41:18;;;;;;;7.00;3.80;;;;;;;7.52;64.83;101561.42;1739975;82;25860;-58
2022/05/02 01:43:45;;;;;;;5.60;3.72;;;;;;;7.52;64.61;101564.09;1739908;82;25697;-59
2022/05/02 01:46:13;;;;;;;6.12;3.40;;;;;;;7.53;64.88;101563.11;1733927;82;25778;-59
2022/05/02 01:48:41;;;;;;;9.43;3.60;;;;;;;7.57;64.94;101571.84;1730669;82;25853;-59
2022/05/02 01:51:09;;;;;;;6.35;3.70;;;;;;;7.58;65.20;101570.85;1734974;82;27478;-59
2022/05/02 01:53:35;;;;;;;10.88;3.92;;;;;;;7.61;65.15;101572.01;1735564;82;25805;-59
2022/05/02 01:56:04;;;;;;;11.50;3.80;;;;;;;7.65;65.58;101572.21;1736038;82;26094;-59
2022/05/02 01:58:30;;;;;;;5.50;3.02;;;;;;;7.67;65.36;101561.77;1730766;81;25912;-59
2022/05/02 02:00:57;;;;;;;8.50;3.62;;;;;;;7.70;65.56;101564.73;1732364;82;25721;-58
2022/05/02 02:03:24;;;;;;;15.65;4.80;;;;;;;7.76;65.57;101557.62;1730838;81;27524;-58
2022/05/02 02:05:51;;;;;;;17.02;3.62;;;;;;;7.79;65.35;101557.94;1731054;81;25795;-58
2022/05/02 02:08:28;;;;;;;12.80;3.35;;;;;;;7.80;65.17;101563.19;1730829;81;25915;-59
2022/05/02 02:11:02;;;;;;;9.05;3.58;;;;;;;7.79;65.35;101556.11;1730844;82;25784;-59
2022/05/02 02:13:30;;;;;;;11.68;3.00;;;;;;;7.72;66.35;101551.23;1735606;82;25742;-58
2022/05/02 02:15:59;;;;;;;10.68;3.65;;;;;;;7.59;65.63;101547.14;1732515;82;27105;-58
2022/05/02 02:18:26;;;;;;;7.30;3.67;;;;;;;7.56;65.69;101554.89;1730586;82;25857;-59
2022/05/02 02:20:55;;;;;;;11.10;3.08;;;;;;;7.56;65.66;101542.00;1730892;82;25661;-59
2022/05/02 02:23:23;;;;;;;11.30;3.47;;;;;;;7.50;65.88;101537.89;1730983;81;25752;-58
2022/05/02 02:25:50;;;;;;;10.30;3.50;;;;;;;7.41;65.54;101543.33;1730903;82;25652;-58
2022/05/02 02:28:17;;;;;;;5.95;3.30;;;;;;;7.32;65.30;101544.79;1730593;82;28205;-58
2022/05/02 02:30:45;;;;;;;7.03;3.67;;;;;;;7.29;65.21;101540.11;1730698;82;25788;-58
2022/05/02 02:33:13;;;;;;;11.65;4.30;;;;;;;7.25;65.25;101557.30;1734072;82;25858;-58
2022/05/02 02:35:40;;;;;;;8.50;3.50;;;;;;;7.20;65.40;101543.73;1739006;82;26428;-58
2022/05/02 02:38:12;;;;;;;7.20;3.33;;;;;;;7.18;65.32;101548.32;1740257;82;25740;-59
2022/05/02 02:40:36;;;;;;;7.65;3.70;;;;;;;7.17;65.29;101543.08;1739144;82;27451;-59
2022/05/02 02:43:02;;;;;;;7.60;4.22;;;;;;;7.10;66.19;101545.27;1739909;82;25515;-59
2022/05/02 02:45:29;;;;;;;11.93;4.42;;;;;;;7.00;65.65;101541.42;1732161;82;25824;-59
2022/05/02 02:47:56;;;;;;;11.83;3.90;;;;;;;6.93;65.62;101543.61;1731888;82;27835;-59
2022/05/02 02:50:25;;;;;;;11.03;3.85;;;;;;;6.89;65.52;101543.43;1732879;82;25805;-59
2022/05/02 02:52:52;;;;;;;11.70;3.95;;;;;;;6.85;65.53;101542.76;1733150;81;27433;-59
2022/05/02 02:55:19;;;;;;;7.62;4.37;;;;;;;6.79;65.50;101548.95;1732965;82;25985;-58
2022/05/02 02:57:46;;;;;;;11.28;3.62;;;;;;;6.72;65.65;101541.27;1732883;81;25788;-60
2022/05/02 03:00:14;;;;;;;7.33;3.52;;;;;;;6.69;65.79;101547.28;1738558;82;25811;-60
2022/05/02 03:02:43;;;;;;;9.53;4.17;;;;;;;6.68;65.95;101544.25;1709082;83;25963;-59
2022/05/02 03:07:58;;;;;;;8.45;3.27;;;;;;;6.69;66.12;101544.15;1733135;82;25834;-59
2022/05/02 03:10:26;;;;;;;4.90;3.35;;;;;;;6.72;66.22;101543.94;1740615;82;25789;-59
2022/05/02 03:12:55;;;;;;;7.30;4.05;;;;;;;6.74;66.35;101545.21;1742407;81;25903;-59
2022/05/02 03:15:22;;;;;;;8.50;3.50;;;;;;;6.77;66.60;101539.66;1702562;84;25422;-59
2022/05/02 03:17:49;;;;;;;9.00;3.60;;;;;;;6.84;66.80;101547.72;1739578;81;28508;-59
2022/05/02 03:20:16;;;;;;;9.85;4.05;;;;;;;6.92;66.83;101548.57;1708804;83;25923;-59
2022/05/02 03:22:43;;;;;;;9.65;3.72;;;;;;;6.97;67.02;101547.83;1708866;83;25710;-59
2022/05/02 03:25:10;;;;;;;12.55;3.52;;;;;;;7.03;66.94;101543.92;1703266;83;25787;-60
2022/05/02 03:27:37;;;;;;;8.78;4.58;;;;;;;7.12;67.20;101553.19;1732906;82;25771;-58
2022/05/02 03:30:06;;;;;;;5.72;3.65;;;;;;;7.18;67.41;101556.81;1738854;82;27130;-58
2022/05/02 03:32:33;;;;;;;9.60;3.20;;;;;;;7.25;67.17;101555.96;1741466;82;25680;-58
2022/05/02 03:35:01;;;;;;;6.65;4.20;;;;;;;7.34;67.19;101562.95;1736806;82;25736;-60
2022/05/02 03:37:28;;;;;;;11.85;3.95;;;;;;;7.40;66.91;101559.01;1732748;82;25840;-59
2022/05/02 03:39:55;;;;;;;12.10;4.20;;;;;;;7.47;66.96;101556.36;1732860;82;25832;-59
2022/05/02 03:42:22;;;;;;;7.65;3.55;;;;;;;7.52;66.80;101552.89;1732922;81;27456;-59
2022/05/02 03:44:48;;;;;;;15.08;3.98;;;;;;;7.60;66.72;101556.89;1733729;82;25765;-59
2022/05/02 03:47:15;;;;;;;7.15;3.42;;;;;;;7.64;66.78;101558.44;1732237;81;25763;-59
2022/05/02 03:49:43;;;;;;;9.05;3.95;;;;;;;7.67;66.57;101556.88;1732828;81;25857;-59
2022/05/02 03:52:10;;;;;;;9.38;3.37;;;;;;;7.72;66.29;101563.28;1734813;82;25432;-59
2022/05/02 03:54:37;;;;;;;8.10;3.83;;;;;;;7.74;66.03;101559.57;1731348;82;28242;-59
2022/05/02 03:57:05;;;;;;;7.80;4.12;;;;;;;7.78;66.03;101567.78;1730486;82;25746;-59
2022/05/02 03:59:32;;;;;;;10.88;4.10;;;;;;;7.80;66.02;101569.00;1733839;81;25724;-60
2022/05/02 04:01:58;;;;;;;5.45;3.75;;;;;;;7.82;65.94;101571.11;1736245;82;26009;-58
2022/05/02 04:04:25;;;;;;;9.55;3.90;;;;;;;7.83;65.88;101572.37;1739215;82;25792;-58
2022/05/02 04:06:53;;;;;;;8.40;4.35;;;;;;;7.84;65.88;101566.03;1740140;82;28134;-59
2022/05/02 04:09:20;;;;;;;8.25;4.53;;;;;;;7.84;65.99;101565.19;1739974;82;25759;-59
2022/05/02 04:11:46;;;;;;;17.70;4.70;;;;;;;7.86;65.98;101564.61;1739553;81;25707;-59
2022/05/02 04:14:13;;;;;;;5.97;4.55;;;;;;;7.90;66.10;101570.62;1739603;82;25808;-59
2022/05/02 04:16:40;;;;;;;9.83;4.67;;;;;;;7.92;66.00;101572.73;1739898;81;27279;-59
2022/05/02 04:19:07;;;;;;;13.43;5.15;;;;;;;7.96;66.09;101570.22;1739829;81;27641;-58
2022/05/02 04:21:34;;;;;;;11.78;6.05;;;;;;;7.98;66.24;101568.31;1739809;81;25768;-59
2022/05/02 04:24:01;;;;;;;18.30;9.58;;;;;;;8.01;66.28;101561.42;1739442;82;25718;-59
2022/05/02 04:26:28;;;;;;;35.63;12.78;;;;;;;8.04;66.41;101561.70;1740046;82;25594;-58
2022/05/02 04:28:55;;;;;;;47.17;17.55;;;;;;;8.08;66.50;101557.38;1739379;81;25694;-59
2022/05/02 04:31:22;;;;;;;43.63;9.98;;;;;;;8.15;66.36;101564.05;1737755;81;27473;-58
2022/05/02 04:33:48;;;;;;;37.95;9.43;;;;;;;8.21;66.26;101563.25;1772871;79;25795;-58
2022/05/02 04:36:16;;;;;;;68.20;9.83;;;;;;;8.26;66.03;101566.02;1774984;80;25814;-59
2022/05/02 04:38:44;;;;;;;32.20;10.98;;;;;;;8.30;66.57;101566.66;1772371;80;25797;-59
2022/05/02 04:41:14;;;;;;;95.28;13.50;;;;;;;8.35;65.96;101559.66;1772183;80;26144;-59
2022/05/02 04:43:42;;;;;;;68.07;10.48;;;;;;;8.44;66.46;101571.98;1772050;81;28483;-59
2022/05/02 04:46:09;;;;;;;51.53;9.60;;;;;;;8.50;65.89;101571.22;1754740;80;25814;-59
2022/05/02 04:48:36;;;;;;;45.30;9.35;;;;;;;8.58;66.03;101568.41;1763258;80;25515;-59
2022/05/02 04:51:03;;;;;;;42.80;8.45;;;;;;;8.65;65.94;101567.48;1768796;80;25928;-59
2022/05/02 04:53:30;;;;;;;31.15;6.60;;;;;;;8.73;66.00;101570.54;1738508;82;25748;-59
2022/05/02 04:55:57;;;;;;;48.68;7.50;;;;;;;8.81;65.63;101567.31;1747571;81;27608;-59
2022/05/02 04:58:25;;;;;;;30.10;5.78;;;;;;;8.89;65.41;101564.11;1717159;82;25886;-58
2022/05/02 05:00:53;;;;;;;36.58;6.30;;;;;;;8.99;65.12;101562.52;1718281;83;25777;-59
2022/05/02 05:03:21;;;;;;;28.40;5.97;;;;;;;9.11;65.02;101566.63;1738243;82;26554;-59
2022/05/02 05:05:48;;;;;;;26.85;5.90;;;;;;;9.21;64.85;101561.88;1745435;81;25948;-59
2022/05/02 05:08:16;;;;;;;31.30;5.53;;;;;;;9.33;64.59;101561.48;1745968;81;27462;-60
2022/05/02 05:11:07;;;;;;;42.75;9.30;;;;;;;9.44;64.23;101563.90;1716819;83;26238;-60
2022/05/02 05:13:44;;;;;;;28.90;8.13;;;;;;;9.53;63.88;101560.05;1716831;83;25745;-59
2022/05/02 05:16:24;;;;;;;28.87;6.67;;;;;;;9.62;63.59;101556.33;1747243;82;25926;-60
2022/05/02 05:19:28;;;;;;;20.62;7.28;;;;;;;9.73;63.40;101558.27;1738686;82;25481;-59
2022/05/02 05:22:20;;;;;;;16.70;6.03;;;;;;;9.78;63.00;101554.74;1739110;81;28312;-60
2022/05/02 05:25:22;;;;;;;16.67;6.80;;;;;;;9.80;62.79;101555.00;1738612;81;25759;-60
2022/05/02 05:28:30;;;;;;;15.20;6.35;;;;;;;9.85;62.98;101555.54;1733461;82;25766;-59
2022/05/02 05:31:35;;;;;;;23.47;8.10;;;;;;;9.90;63.04;101556.55;1738963;82;25859;-59
2022/05/02 05:34:05;;;;;;;;;;;;;;;9.92;62.98;101558.61;1716365;83;25720;-60
2022/05/02 05:37:10;;;;;;;27.05;6.70;;;;;;;9.98;63.27;101555.96;1714006;83;28558;-59
2022/05/02 05:40:01;;;;;;;21.77;7.05;;;;;;;10.05;63.25;101559.06;1713544;83;27293;-60
2022/05/02 05:42:38;;;;;;;22.48;6.12;;;;;;;10.12;63.24;101555.81;1713708;83;25799;-60
2022/05/02 05:45:28;;;;;;;26.80;6.60;;;;;;;10.20;63.05;101553.88;1713724;83;26651;-59
2022/05/02 05:48:37;;;;;;;19.37;5.72;;;;;;;10.26;62.77;101554.79;1711754;83;25820;-59
2022/05/02 05:51:34;;;;;;;20.27;6.65;;;;;;;10.33;62.60;101549.78;1763706;80;27566;-59
2022/05/02 05:54:31;;;;;;;19.95;7.35;;;;;;;10.41;62.58;101545.22;1773276;80;25712;-59
2022/05/02 05:57:20;;;;;;;19.85;7.15;;;;;;;10.51;62.52;101545.36;1773852;80;25747;-60
2022/05/02 06:00:11;;;;;;;18.85;7.17;;;;;;;10.60;62.70;101548.70;1773489;79;25943;-60
2022/05/02 06:03:15;;;;;;;16.82;7.00;;;;;;;10.70;62.55;101547.52;1773720;80;25735;-60
2022/05/02 06:05:45;;;;;;;24.63;6.85;;;;;;;10.80;62.46;101548.53;1708577;84;27263;-59
2022/05/02 06:08:21;;;;;;;24.57;6.33;;;;;;;10.89;62.31;101546.44;1708352;83;25860;-59
2022/05/02 06:10:51;;;;;;;18.37;6.20;;;;;;;10.99;62.37;101545.73;1707816;83;25732;-60
2022/05/02 06:13:19;;;;;;;12.18;5.55;;;;;;;11.09;62.41;101547.59;1708492;84;25862;-60
2022/05/02 06:18:38;;;;;;;10.70;4.95;;;;;;;11.28;62.44;101541.60;1708669;84;27431;-60
2022/05/02 06:21:07;;;;;;;13.40;5.10;;;;;;;11.43;62.28;101548.95;1708688;84;25814;-60
2022/05/02 06:23:47;;;;;;;16.73;5.72;;;;;;;11.56;62.29;101542.59;1708805;83;25531;-60
2022/05/02 06:26:17;;;;;;;22.85;5.28;;;;;;;11.69;62.10;101540.60;1708472;84;25797;-60
2022/05/02 06:28:46;;;;;;;14.70;4.90;;;;;;;11.83;61.98;101543.52;1708952;82;25496;-60
2022/05/02 06:31:24;;;;;;;16.45;5.15;;;;;;;11.99;61.73;101535.55;1688270;84;27633;-60
2022/05/02 06:33:51;;;;;;;22.87;5.65;;;;;;;12.16;61.55;101535.51;1770586;80;25816;-60
2022/05/02 06:36:27;;;;;;;8.73;4.90;;;;;;;12.33;61.36;101529.55;1773336;80;25771;-60
2022/05/02 06:39:14;;;;;;;9.88;5.40;;;;;;;12.51;60.69;101531.68;1739527;80;25909;-60
2022/05/02 06:41:55;;;;;;;16.07;5.95;;;;;;;12.64;60.27;101528.80;1772071;80;25707;-60
2022/05/02 06:45:10;;;;;;;21.77;6.37;;;;;;;12.79;59.82;101527.97;1773044;79;27471;-60
2022/05/02 06:48:07;;;;;;;16.55;5.53;;;;;;;12.90;58.54;101529.26;1772897;79;25503;-60
2022/05/02 06:50:37;;;;;;;7.90;4.00;;;;;;;13.04;57.78;101535.29;1773097;80;25652;-60
2022/05/02 06:53:32;;;;;;;14.05;3.75;;;;;;;13.18;57.18;101528.17;1773248;80;26519;-59
2022/05/02 06:56:16;;;;;;;6.22;3.33;;;;;;;13.29;56.49;101528.60;1773334;79;25708;-59
2022/05/02 06:59:03;;;;;;;7.75;3.45;;;;;;;13.42;56.75;101527.89;1772648;79;27477;-60
2022/05/02 07:01:41;;;;;;;14.55;3.72;;;;;;;13.57;56.07;101522.13;1773180;79;25500;-60
2022/05/02 07:04:16;;;;;;;8.00;3.30;;;;;;;13.67;55.75;101520.28;1756832;79;25829;-59
2022/05/02 07:07:03;;;;;;;9.95;3.45;;;;;;;13.81;55.42;101518.19;1744391;82;25862;-59
2022/05/02 07:09:47;;;;;;;9.40;3.67;;;;;;;13.92;55.20;101517.56;1744411;82;25784;-59
2022/05/02 07:12:25;;;;;;;;;;;;;;;14.05;54.87;101511.89;1746212;80;27473;-59
2022/05/02 07:15:24;;;;;;;9.13;3.27;;;;;;;14.22;54.23;101511.70;1744084;82;25781;-59
2022/05/02 07:18:27;;;;;;;9.68;3.17;;;;;;;14.37;52.81;101508.55;1744620;82;25648;-58
2022/05/02 07:21:48;;;;;;;10.70;3.20;;;;;;;14.53;52.70;101507.98;1744431;80;25805;-59
2022/05/02 07:24:57;;;;;;;6.53;2.70;;;;;;;14.71;52.25;101510.81;1744348;82;25853;-60
2022/05/02 07:27:47;;;;;;;7.53;2.70;;;;;;;14.89;51.33;101510.94;1690403;83;27474;-59
2022/05/02 07:30:17;;;;;;;11.97;3.05;;;;;;;15.07;50.22;101508.30;1688940;84;26090;-59
2022/05/02 07:32:44;;;;;;;10.75;3.50;;;;;;;15.24;49.40;101510.75;1706951;83;25806;-59
2022/05/02 07:35:15;;;;;;;7.28;2.62;;;;;;;15.37;49.34;101510.92;1724137;83;26007;-59
2022/05/02 07:37:44;;;;;;;6.28;3.30;;;;;;;15.51;49.16;101507.70;1724137;83;25820;-59
2022/05/02 07:40:15;;;;;;;16.73;3.10;;;;;;;15.64;48.69;101504.11;1723678;83;27629;-60
2022/05/02 07:42:44;;;;;;;14.35;3.55;;;;;;;15.81;46.94;101506.52;1723363;83;25814;-59
2022/05/02 07:45:18;;;;;;;10.68;3.22;;;;;;;15.92;46.84;101504.11;1724226;83;25783;-60
2022/05/02 07:47:48;;;;;;;11.38;3.45;;;;;;;16.04;45.85;101497.98;1699919;83;25924;-59
2022/05/02 07:50:19;;;;;;;7.00;2.80;;;;;;;16.18;46.18;101499.28;1711474;81;25573;-60
2022/05/02 07:52:48;;;;;;;15.60;3.02;;;;;;;16.33;45.87;101492.80;1707695;84;27556;-60
2022/05/02 07:55:16;;;;;;;18.90;3.30;;;;;;;16.48;44.60;101499.88;1683624;84;25795;-60
2022/05/02 07:57:44;;;;;;;9.15;2.95;;;;;;;16.59;44.73;101503.72;1716047;81;25543;-60
2022/05/02 08:00:14;;;;;;;9.23;2.62;;;;;;;16.73;43.69;101493.27;1741970;81;25820;-60
2022/05/02 08:02:42;;;;;;;10.55;2.50;;;;;;;16.89;43.04;101494.77;1762634;80;25912;-60
2022/05/02 08:05:10;;;;;;;15.65;3.00;;;;;;;17.03;43.66;101489.24;1715902;81;27457;-60
2022/05/02 08:07:46;;;;;;;13.30;2.98;;;;;;;17.18;42.86;101489.50;1715201;82;25730;-60
2022/05/02 08:10:44;;;;;;;11.97;4.33;;;;;;;17.32;41.84;101488.03;1715239;83;25752;-61
2022/05/02 08:13:33;;;;;;;17.17;2.98;;;;;;;17.46;41.12;101486.56;1714680;83;26790;-60
2022/05/02 08:16:05;;;;;;;10.53;2.50;;;;;;;17.64;41.71;101482.88;1715387;83;25721;-60
2022/05/02 08:19:25;;;;;;;6.00;2.13;;;;;;;17.84;40.84;101478.85;1715640;82;27613;-61
2022/05/02 08:28:27;;;;;;;8.65;2.20;;;;;;;18.49;40.58;101475.53;1715139;83;25834;-60
2022/05/02 08:31:49;;;;;;;10.90;2.30;;;;;;;18.62;39.86;101471.75;1715182;83;25696;-59
2022/05/02 08:34:26;;;;;;;14.68;3.05;;;;;;;18.76;39.63;101469.70;1688481;84;27553;-59
2022/05/02 08:37:36;;;;;;;7.50;2.00;;;;;;;18.96;39.25;101467.13;1688213;83;25926;-59
2022/05/02 08:40:11;;;;;;;4.37;1.85;;;;;;;19.10;37.67;101460.09;1700150;83;25784;-59
2022/05/02 08:43:15;;;;;;;3.27;1.70;;;;;;;19.27;36.63;101463.09;1704310;83;25825;-59
2022/05/02 08:45:53;;;;;;;7.05;2.05;;;;;;;19.44;35.92;101449.38;1704880;84;25856;-58
2022/05/02 08:52:29;;;;;;;11.57;2.27;;;;;;;19.73;35.97;101456.04;1707548;82;25804;-61
2022/05/02 08:55:04;;;;;;;6.97;1.77;;;;;;;19.98;35.15;101448.05;1708182;82;25527;-60
2022/05/02 08:58:08;;;;;;;7.33;1.75;;;;;;;20.09;33.33;101446.76;1707962;84;26278;-60
2022/05/02 09:01:15;;;;;;;3.58;1.60;;;;;;;20.21;32.90;101440.37;1708188;84;25509;-59
2022/05/02 09:04:06;;;;;;;8.08;1.85;;;;;;;20.33;34.45;101435.31;1707833;84;29604;-59
2022/05/02 09:07:11;;;;;;;9.65;1.92;;;;;;;20.49;32.86;101434.28;1707679;84;25789;-59
2022/05/02 09:10:12;;;;;;;8.60;1.80;;;;;;;20.54;33.17;101436.45;1707883;83;25800;-59
2022/05/02 09:13:18;;;;;;;9.73;1.82;;;;;;;20.74;32.85;101432.19;1707593;82;26384;-59
2022/05/02 09:16:02;;;;;;;10.55;2.10;;;;;;;20.99;32.53;101429.69;1708023;83;25827;-59
2022/05/02 09:18:46;;;;;;;13.03;4.58;;;;;;;21.36;31.83;101431.43;1707568;83;28144;-60
2022/05/02 09:21:42;;;;;;;2.47;1.62;;;;;;;21.82;32.59;101424.83;1707893;84;25842;-60
2022/05/02 09:24:50;;;;;;;27.42;2.72;;;;;;;22.26;30.91;101422.06;1707982;84;25725;-61
2022/05/02 09:27:36;;;;;;;16.10;2.42;;;;;;;22.70;31.12;101432.41;1708068;84;26598;-61
2022/05/02 09:30:25;;;;;;;5.22;2.22;;;;;;;23.12;30.67;101423.16;1708078;83;25821;-61
2022/05/02 09:33:06;;;;;;;6.12;1.90;;;;;;;23.07;30.02;101427.56;1710904;81;27541;-60
2022/05/02 09:35:53;;;;;;;10.05;2.27;;;;;;;22.94;29.47;101414.62;1679224;84;25841;-61
2022/05/02 09:38:26;;;;;;;8.95;1.60;;;;;;;22.85;29.57;101421.33;1651512;86;25828;-61
2022/05/02 09:41:04;;;;;;;12.53;2.27;;;;;;;22.94;29.70;101418.74;1651692;86;25819;-60
2022/05/02 09:50:31;;;;;;;15.05;2.12;;;;;;;23.43;29.44;101411.38;1669781;84;25804;-60
2022/05/02 09:53:06;;;;;;;12.58;2.25;;;;;;;24.07;28.83;101410.03;1697236;84;25550;-60
2022/05/02 09:58:54;;;;;;;3.37;1.30;;;;;;;25.15;27.68;101398.86;1697447;84;25773;-60
2022/05/02 10:01:30;;;;;;;8.23;1.95;;;;;;;25.77;26.10;101396.98;1697176;84;27610;-60
2022/05/02 10:04:31;;;;;;;9.53;2.40;;;;;;;26.11;25.92;101387.08;1693469;84;25752;-60
2022/05/02 10:07:12;;;;;;;31.25;2.95;;;;;;;26.48;25.66;101385.27;1689273;84;25815;-60
2022/05/02 10:10:08;;;;;;;5.33;2.20;;;;;;;27.00;24.95;101393.19;1690260;84;25616;-60
2022/05/02 10:12:53;;;;;;;7.28;1.50;;;;;;;27.47;24.68;101389.00;1689778;83;25879;-60
2022/05/02 10:15:48;;;;;;;27.35;2.12;;;;;;;27.98;24.45;101383.97;1689249;83;27464;-60
2022/05/02 10:18:32;;;;;;;5.28;1.60;;;;;;;28.50;23.46;101382.45;1690096;84;25749;-60
2022/05/02 10:21:35;;;;;;;3.92;1.32;;;;;;;28.38;22.75;101383.29;1689904;84;25487;-62
2022/05/02 10:24:19;;;;;;;34.00;5.37;;;;;;;28.86;22.28;101377.20;1688387;83;25809;-60
2022/05/02 10:27:10;;;;;;;9.70;1.67;;;;;;;28.72;21.42;101379.92;1661438;85;26024;-59
2022/05/02 10:30:12;;;;;;;4.30;1.77;;;;;;;28.23;22.02;101374.64;1662392;86;28276;-60
2022/05/02 10:32:55;;;;;;;11.30;2.10;;;;;;;27.95;22.98;101378.91;1689826;84;25477;-59
2022/05/02 10:35:25;;;;;;;8.13;1.75;;;;;;;27.86;22.77;101369.27;1689929;84;25817;-61
2022/05/02 10:38:02;;;;;;;6.62;1.65;;;;;;;28.49;21.93;101370.55;1689562;84;25731;-59
2022/05/02 10:40:40;;;;;;;4.30;1.27;;;;;;;29.14;21.24;101367.78;1687836;83;25803;-61
2022/05/02 10:43:20;;;;;;;10.90;1.70;;;;;;;29.29;20.90;101363.91;1662127;86;27510;-59
2022/05/02 10:45:49;;;;;;;5.53;1.70;;;;;;;29.60;21.10;101359.50;1661850;86;25771;-59
2022/05/02 10:48:25;;;;;;;7.12;1.98;;;;;;;30.22;19.94;101360.55;1662327;86;25540;-59
2022/05/02 10:51:00;;;;;;;4.83;1.82;;;;;;;30.05;19.89;101357.24;1682699;83;26031;-60
2022/05/02 10:53:49;;;;;;;6.28;1.65;;;;;;;30.42;20.01;101353.09;1689242;84;25772;-59
2022/05/02 10:56:35;;;;;;;8.90;2.05;;;;;;;30.22;19.44;101350.83;1689633;84;27561;-59
2022/05/02 10:59:05;;;;;;;5.60;1.20;;;;;;;30.22;19.65;101345.28;1689656;84;25713;-60
2022/05/02 11:02:06;;;;;;;8.40;1.70;;;;;;;30.51;19.01;101339.06;1689868;84;25823;-60
2022/05/02 11:04:56;;;;;;;7.80;1.50;;;;;;;30.79;19.13;101344.17;1690034;83;25820;-61
2022/05/02 11:07:28;;;;;;;6.17;1.25;;;;;;;30.64;19.07;101339.79;1679396;83;27342;-61
2022/05/02 11:10:03;;;;;;;4.22;1.52;;;;;;;30.58;18.50;101338.34;1690078;84;26894;-61
2022/05/02 11:12:42;;;;;;;6.95;1.50;;;;;;;31.12;18.20;101338.72;1684207;83;25757;-60
2022/05/02 11:15:18;;;;;;;4.00;1.35;;;;;;;31.51;17.83;101328.27;1690092;84;25808;-61
2022/05/02 11:21:39;;;;;;;15.08;1.92;;;;;;;32.15;17.77;101327.97;1690325;83;25789;-60
2022/05/02 11:24:36;;;;;;;7.25;1.98;;;;;;;32.63;17.83;101318.78;1690107;84;27451;-59
2022/05/02 11:27:38;;;;;;;10.60;1.90;;;;;;;33.11;17.35;101313.69;1690063;84;25551;-59
2022/05/02 11:30:08;;;;;;;5.47;1.40;;;;;;;33.63;16.71;101309.00;1690417;84;25809;-60
2022/05/02 11:32:54;;;;;;;6.35;1.52;;;;;;;33.81;16.77;101303.42;1690594;83;25847;-60
2022/05/02 11:35:30;;;;;;;11.33;1.70;;;;;;;34.14;16.31;101294.17;1640685;84;25896;-60
2022/05/02 11:38:42;;;;;;;4.72;1.62;;;;;;;34.46;15.16;101288.81;1660380;85;27507;-60
2022/05/02 11:41:18;;;;;;;4.22;1.42;;;;;;;34.35;15.66;101288.53;1652225;86;25746;-60
2022/05/02 11:43:48;;;;;;;5.92;1.87;;;;;;;34.61;15.78;101282.30;1651347;84;25806;-61
2022/05/02 11:46:22;;;;;;;6.30;1.50;;;;;;;35.14;15.36;101276.73;1641192;86;25972;-59
2022/05/02 11:49:14;;;;;;;9.83;1.60;;;;;;;35.63;14.50;101279.15;1689427;84;25513;-61
2022/05/02 11:51:51;;;;;;;5.30;1.80;;;;;;;35.81;15.17;101268.62;1686717;83;27523;-60
2022/05/02 11:54:35;;;;;;;6.97;1.62;;;;;;;36.22;15.24;101263.70;1689258;83;25896;-60
2022/05/02 11:57:22;;;;;;;9.38;1.87;;;;;;;36.69;15.05;101259.20;1689930;84;25791;-60
2022/05/02 12:00:11;;;;;;;17.12;2.95;;;;;;;37.10;14.55;101250.19;1689403;84;25771;-60
2022/05/02 12:02:56;;;;;;;11.30;1.87;;;;;;;37.38;14.14;101252.31;1689874;84;25757;-62
2022/05/02 12:05:41;;;;;;;11.40;2.40;;;;;;;37.47;13.75;101248.22;1692430;82;27748;-61
2022/05/02 12:08:13;;;;;;;3.52;2.25;;;;;;;37.25;13.15;101239.30;1714724;83;25779;-61
2022/05/02 12:10:48;;;;;;;10.40;1.70;;;;;;;37.08;13.40;101239.84;1689288;84;25813;-60
2022/05/02 12:13:18;;;;;;;11.28;2.00;;;;;;;37.25;13.26;101232.87;1685181;84;25933;-59
2022/05/02 12:16:04;;;;;;;11.48;1.82;;;;;;;37.34;13.22;101230.17;1681850;85;25685;-59
2022/05/02 12:18:51;;;;;;;5.00;2.15;;;;;;;36.75;13.95;101226.34;1681754;85;27486;-59
2022/05/02 12:21:41;;;;;;;5.72;1.65;;;;;;;37.22;13.67;101229.26;1682243;85;25932;-62
2022/05/02 12:24:10;;;;;;;9.73;2.33;;;;;;;37.45;13.24;101223.28;1683132;83;25837;-61
2022/05/02 12:26:50;;;;;;;7.20;2.20;;;;;;;37.78;13.40;101217.60;1718461;83;26352;-60
2022/05/02 12:29:19;;;;;;;6.78;1.85;;;;;;;38.01;13.86;101216.35;1689311;83;25787;-60
2022/05/02 12:32:02;;;;;;;8.18;1.95;;;;;;;38.47;13.13;101208.92;1692196;83;27683;-60
2022/05/02 12:34:40;;;;;;;10.03;1.85;;;;;;;38.69;13.27;101197.48;1717937;83;25836;-61
2022/05/02 12:37:23;;;;;;;9.63;1.75;;;;;;;39.06;12.82;101205.30;1717902;82;25732;-60
2022/05/02 12:40:03;;;;;;;12.63;1.57;;;;;;;39.17;12.39;101195.45;1708401;82;25789;-60
2022/05/02 12:42:41;;;;;;;6.03;1.80;;;;;;;39.20;12.31;101194.81;1708535;82;26611;-60